Time;durP1;ratioP1;P1;durP2;ratioP2;P2;SDS_P1;SDS_P2;PMS_P1;PMS_P2;Temp;Humidity;BMP_temperature;BMP_pressure;BME280_temperature;BME280_humidity;BME280_pressure;Samples;Min_cycle;Max_cycle;Signal;HPM_P1;HPM_P2
2022/07/30 00:02:08;;;;;;;4.43;3.10;;;21.60;99.90;;;;;;4977803;28;20038;-72
2022/07/30 00:04:34;;;;;;;3.40;3.10;;;21.60;99.90;;;;;;4975076;28;20142;-74
2022/07/30 00:07:02;;;;;;;4.38;3.13;;;21.60;99.90;;;;;;4975871;28;20129;-73
2022/07/30 00:09:28;;;;;;;3.60;3.30;;;21.60;99.90;;;;;;4972552;28;20050;-72
2022/07/30 00:11:54;;;;;;;4.80;3.03;;;21.50;99.90;;;;;;4971999;28;20046;-72
2022/07/30 00:14:19;;;;;;;3.42;3.13;;;21.60;99.90;;;;;;4971945;28;20041;-73
2022/07/30 00:16:45;;;;;;;4.05;3.20;;;21.50;99.90;;;;;;4971409;28;20062;-72
2022/07/30 00:19:11;;;;;;;3.40;3.10;;;21.50;99.90;;;;;;4970530;28;20101;-71
2022/07/30 00:21:37;;;;;;;5.60;3.00;;;21.50;99.90;;;;;;4974322;28;20051;-70
2022/07/30 00:24:03;;;;;;;3.90;3.10;;;21.50;99.90;;;;;;4974099;28;20046;-71
2022/07/30 00:26:29;;;;;;;3.30;2.92;;;21.50;99.90;;;;;;4978323;28;20034;-71
2022/07/30 00:28:55;;;;;;;3.67;3.00;;;21.50;99.90;;;;;;4975986;28;20040;-71
2022/07/30 00:31:21;;;;;;;3.72;3.08;;;21.50;99.90;;;;;;4974286;28;20887;-70
2022/07/30 00:33:46;;;;;;;3.28;3.05;;;21.50;99.90;;;;;;4972472;28;20061;-70
2022/07/30 00:36:12;;;;;;;3.75;2.92;;;21.50;99.90;;;;;;4978052;28;20050;-70
2022/07/30 00:38:37;;;;;;;3.47;3.17;;;21.40;99.90;;;;;;4975197;28;20074;-70
2022/07/30 00:41:03;;;;;;;3.05;2.83;;;21.40;99.90;;;;;;4957488;28;20096;-70
2022/07/30 00:43:29;;;;;;;3.72;3.08;;;21.40;99.90;;;;;;4978002;28;20103;-70
2022/07/30 00:45:54;;;;;;;3.22;2.92;;;21.40;99.90;;;;;;4978890;28;20026;-70
2022/07/30 00:48:20;;;;;;;4.30;3.00;;;21.50;99.90;;;;;;4971529;28;20046;-70
2022/07/30 00:50:46;;;;;;;3.17;2.95;;;21.40;99.90;;;;;;4970802;28;20507;-70
2022/07/30 00:53:11;;;;;;;3.95;3.50;;;21.40;99.90;;;;;;4973319;28;20506;-70
2022/07/30 00:55:37;;;;;;;4.85;2.58;;;21.40;99.90;;;;;;4969479;28;20023;-70
2022/07/30 00:58:03;;;;;;;3.33;3.03;;;21.40;99.90;;;;;;4976945;28;20030;-71
2022/07/30 01:00:28;;;;;;;3.20;2.88;;;21.40;99.90;;;;;;4975988;28;20031;-70
2022/07/30 01:02:54;;;;;;;4.43;3.38;;;21.30;99.90;;;;;;4974447;28;20034;-70
2022/07/30 01:05:20;;;;;;;3.65;3.10;;;21.30;99.90;;;;;;4971518;28;20605;-70
2022/07/30 01:07:46;;;;;;;5.93;2.83;;;21.30;99.90;;;;;;4973879;28;20042;-70
2022/07/30 01:10:13;;;;;;;5.90;3.20;;;21.30;99.90;;;;;;4975020;28;21828;-70
2022/07/30 01:12:39;;;;;;;2.78;2.58;;;21.20;99.90;;;;;;4974570;28;20292;-70
2022/07/30 01:15:07;;;;;;;3.95;2.72;;;21.30;99.90;;;;;;4969323;28;20201;-70
2022/07/30 01:17:34;;;;;;;4.28;2.92;;;21.30;99.90;;;;;;4973069;28;20042;-70
2022/07/30 01:20:08;;;;;;;3.28;2.97;;;21.40;99.90;;;;;;4971473;28;20160;-70
2022/07/30 01:23:03;;;;;;;2.55;2.30;;;21.40;99.90;;;;;;4976049;28;20454;-70
2022/07/30 01:25:58;;;;;;;5.63;2.80;;;21.50;99.90;;;;;;4972860;28;20077;-70
2022/07/30 01:28:47;;;;;;;2.80;2.60;;;21.50;99.90;;;;;;4970037;28;20487;-70
2022/07/30 01:31:14;;;;;;;3.22;2.67;;;21.60;99.90;;;;;;4975511;28;20069;-70
2022/07/30 01:33:43;;;;;;;3.42;3.13;;;21.70;99.90;;;;;;4972790;28;20053;-70
2022/07/30 01:36:14;;;;;;;4.35;2.92;;;21.70;99.90;;;;;;4975696;28;20058;-67
2022/07/30 01:38:43;;;;;;;4.45;3.33;;;21.70;99.90;;;;;;4969537;28;20689;-69
2022/07/30 01:41:11;;;;;;;9.10;4.38;;;21.60;99.90;;;;;;4975098;28;20039;-69
2022/07/30 01:43:38;;;;;;;7.70;3.67;;;21.60;99.90;;;;;;4972971;28;20039;-69
2022/07/30 01:46:06;;;;;;;5.57;3.83;;;21.40;99.90;;;;;;4973579;28;20026;-69
2022/07/30 01:48:36;;;;;;;6.28;3.85;;;21.10;99.90;;;;;;4972456;28;20042;-69
2022/07/30 01:51:04;;;;;;;5.20;4.03;;;21.00;99.90;;;;;;4973987;28;20543;-69
2022/07/30 01:53:34;;;;;;;4.72;4.05;;;21.10;99.90;;;;;;4966422;28;20054;-69
2022/07/30 01:56:01;;;;;;;6.68;4.00;;;21.20;99.90;;;;;;4976302;28;20030;-70
2022/07/30 01:58:31;;;;;;;5.97;4.10;;;21.20;99.90;;;;;;4978952;28;20062;-70
2022/07/30 02:00:57;;;;;;;4.88;4.18;;;21.10;99.90;;;;;;4968040;28;20046;-70
2022/07/30 02:03:24;;;;;;;5.90;4.68;;;21.00;99.90;;;;;;4970395;28;20167;-69
2022/07/30 02:05:55;;;;;;;5.05;4.25;;;21.00;99.90;;;;;;4947005;28;20559;-69
2022/07/30 02:08:56;;;;;;;5.72;4.00;;;21.00;99.90;;;;;;4970259;28;20121;-70
2022/07/30 02:14:35;;;;;;;5.10;4.45;;;21.00;99.90;;;;;;4913873;29;20052;-69
2022/07/30 02:17:01;;;;;;;5.38;3.90;;;20.90;99.90;;;;;;4913456;29;20070;-69
2022/07/30 02:19:40;;;;;;;4.93;3.78;;;20.70;99.90;;;;;;4941496;28;20053;-69
2022/07/30 02:22:09;;;;;;;5.25;3.60;;;20.70;99.90;;;;;;4966350;28;20031;-69
2022/07/30 02:24:37;;;;;;;6.95;4.00;;;20.60;99.90;;;;;;4969074;28;20153;-69
2022/07/30 02:27:12;;;;;;;4.60;3.60;;;20.60;99.90;;;;;;4967870;28;20023;-69
2022/07/30 02:29:41;;;;;;;4.18;3.17;;;20.60;99.90;;;;;;4965024;28;20046;-69
2022/07/30 02:32:09;;;;;;;5.32;3.35;;;20.60;99.90;;;;;;4971383;28;20030;-68
2022/07/30 02:34:38;;;;;;;5.00;2.78;;;20.50;99.90;;;;;;4972529;28;20070;-69
2022/07/30 02:37:06;;;;;;;4.15;2.95;;;20.50;99.90;;;;;;4970784;28;20039;-69
2022/07/30 02:39:34;;;;;;;5.95;3.38;;;20.60;99.90;;;;;;4969618;28;20139;-69
2022/07/30 02:42:01;;;;;;;3.85;3.47;;;20.70;99.90;;;;;;4977959;28;20081;-69
2022/07/30 02:44:28;;;;;;;5.40;3.80;;;20.80;99.90;;;;;;4979856;28;20497;-69
2022/07/30 02:46:56;;;;;;;8.35;4.47;;;20.90;99.90;;;;;;4988196;28;20026;-68
2022/07/30 02:49:23;;;;;;;7.10;4.28;;;20.90;99.90;;;;;;4994952;28;20049;-70
2022/07/30 02:51:49;;;;;;;9.93;4.82;;;20.80;99.90;;;;;;4986374;28;20115;-69
2022/07/30 02:54:18;;;;;;;11.40;4.50;;;20.70;99.90;;;;;;4995652;28;20138;-70
2022/07/30 02:56:46;;;;;;;7.10;4.78;;;20.60;99.90;;;;;;4988784;28;20496;-69
2022/07/30 02:59:13;;;;;;;8.63;4.22;;;20.60;99.90;;;;;;4988065;28;20133;-70
2022/07/30 03:01:40;;;;;;;6.00;4.45;;;20.60;99.90;;;;;;4988599;28;20037;-71
2022/07/30 03:04:07;;;;;;;6.70;4.78;;;20.50;99.90;;;;;;4990083;28;20210;-69
2022/07/30 03:06:34;;;;;;;15.93;5.15;;;20.40;99.90;;;;;;4984012;28;20045;-68
2022/07/30 03:09:02;;;;;;;10.27;5.13;;;20.50;99.90;;;;;;4991939;28;20038;-69
2022/07/30 03:11:29;;;;;;;6.55;4.47;;;20.50;99.90;;;;;;4983609;28;20061;-68
2022/07/30 03:13:55;;;;;;;7.07;4.15;;;20.40;99.90;;;;;;4986277;28;20058;-68
2022/07/30 03:16:23;;;;;;;7.68;5.03;;;20.20;99.90;;;;;;4988537;28;20042;-69
2022/07/30 03:18:52;;;;;;;11.70;5.18;;;20.10;99.90;;;;;;4990693;28;20030;-70
2022/07/30 03:21:20;;;;;;;9.27;5.15;;;20.10;99.90;;;;;;4987187;28;20484;-68
2022/07/30 03:23:48;;;;;;;11.57;5.30;;;20.20;99.90;;;;;;4987291;28;20041;-68
2022/07/30 03:26:18;;;;;;;7.97;5.03;;;20.20;99.90;;;;;;4982031;28;20089;-68
2022/07/30 03:28:46;;;;;;;9.27;5.50;;;20.10;99.90;;;;;;4974194;28;20039;-71
2022/07/30 03:31:13;;;;;;;8.98;4.85;;;20.10;99.90;;;;;;4978019;28;20141;-69
2022/07/30 03:33:40;;;;;;;10.73;4.63;;;20.00;99.90;;;;;;4987267;28;20058;-71
2022/07/30 03:36:07;;;;;;;12.85;5.38;;;19.80;99.90;;;;;;4984104;28;20166;-70
2022/07/30 03:38:36;;;;;;;10.70;5.45;;;19.70;99.90;;;;;;4973283;28;20050;-71
2022/07/30 03:41:03;;;;;;;6.25;4.97;;;19.70;99.90;;;;;;4970414;28;20089;-71
2022/07/30 03:43:29;;;;;;;7.15;4.97;;;19.70;99.90;;;;;;4987719;28;21383;-70
2022/07/30 03:45:56;;;;;;;7.20;4.43;;;19.70;99.90;;;;;;4988645;28;20048;-71
2022/07/30 03:48:22;;;;;;;7.93;4.38;;;19.70;99.90;;;;;;4986274;28;20038;-71
2022/07/30 03:50:50;;;;;;;4.22;3.78;;;19.60;99.90;;;;;;4987228;28;20072;-69
2022/07/30 03:53:16;;;;;;;4.05;3.60;;;19.50;99.90;;;;;;4987974;28;20038;-70
2022/07/30 03:55:42;;;;;;;5.32;4.82;;;19.60;99.90;;;;;;4991526;28;20026;-70
2022/07/30 03:58:08;;;;;;;4.93;4.18;;;19.70;99.90;;;;;;4987819;28;20030;-70
2022/07/30 04:00:34;;;;;;;5.40;4.45;;;19.80;99.90;;;;;;4985166;28;20033;-70
2022/07/30 04:03:00;;;;;;;5.97;4.75;;;19.80;99.90;;;;;;4981825;28;20043;-70
2022/07/30 04:05:26;;;;;;;5.22;4.47;;;20.00;99.90;;;;;;4987698;28;20141;-70
2022/07/30 04:07:51;;;;;;;8.70;5.47;;;20.00;99.90;;;;;;4987300;28;20129;-70
2022/07/30 04:10:17;;;;;;;4.82;4.35;;;20.10;99.90;;;;;;4985408;28;20047;-69
2022/07/30 04:12:43;;;;;;;9.80;4.63;;;20.10;99.90;;;;;;4985054;28;20046;-70
2022/07/30 04:15:09;;;;;;;7.18;5.65;;;20.10;99.90;;;;;;4988327;28;20046;-70
2022/07/30 04:17:40;;;;;;;7.00;4.65;;;20.10;99.90;;;;;;4984331;28;20081;-70
2022/07/30 04:20:30;;;;;;;6.07;4.90;;;20.10;99.90;;;;;;4979821;28;20034;-71
2022/07/30 04:22:57;;;;;;;11.50;5.43;;;20.10;99.90;;;;;;4976447;28;20040;-71
2022/07/30 04:26:21;;;;;;;10.32;5.95;;;20.10;99.90;;;;;;5068432;27;20532;-69
2022/07/30 04:28:47;;;;;;;8.63;5.85;;;20.10;99.90;;;;;;5085337;27;20035;-70
2022/07/30 04:31:14;;;;;;;13.50;6.18;;;19.90;99.90;;;;;;5092309;28;20039;-71
2022/07/30 04:33:40;;;;;;;7.55;6.38;;;19.90;99.90;;;;;;5086524;28;20028;-70
2022/07/30 04:36:07;;;;;;;7.38;5.68;;;19.90;99.90;;;;;;5091725;27;20463;-71
2022/07/30 04:38:32;;;;;;;5.90;5.30;;;19.80;99.90;;;;;;5087113;28;20118;-72
2022/07/30 04:40:58;;;;;;;7.35;5.53;;;19.90;99.90;;;;;;5091946;28;20111;-71
2022/07/30 04:43:24;;;;;;;8.98;6.22;;;19.90;99.90;;;;;;5087862;28;20025;-70
2022/07/30 04:45:49;;;;;;;5.32;4.93;;;20.00;99.90;;;;;;5089259;28;20193;-69
2022/07/30 04:48:15;;;;;;;5.70;5.20;;;20.00;99.90;;;;;;5089238;28;20031;-70
2022/07/30 04:50:45;;;;;;;6.88;5.53;;;19.90;99.90;;;;;;5087763;27;20746;-70
2022/07/30 04:53:11;;;;;;;5.95;5.38;;;19.90;99.90;;;;;;5084052;27;20028;-70
2022/07/30 04:55:40;;;;;;;7.22;5.93;;;20.00;99.90;;;;;;5084186;28;20024;-70
2022/07/30 04:58:07;;;;;;;5.63;5.05;;;20.00;99.90;;;;;;5088294;28;20024;-70
2022/07/30 05:00:35;;;;;;;7.35;6.57;;;20.00;99.90;;;;;;5084231;28;20081;-70
2022/07/30 05:03:04;;;;;;;6.45;5.45;;;19.80;99.90;;;;;;5087470;28;20032;-71
2022/07/30 05:05:31;;;;;;;6.82;5.22;;;19.80;99.90;;;;;;5085916;28;20036;-70
2022/07/30 05:07:59;;;;;;;5.72;4.63;;;19.80;99.90;;;;;;5084987;28;20024;-71
2022/07/30 05:10:24;;;;;;;6.70;4.65;;;19.80;99.90;;;;;;5083197;28;20032;-71
2022/07/30 05:12:50;;;;;;;5.35;4.88;;;19.90;99.90;;;;;;5087363;28;20395;-71
2022/07/30 05:15:16;;;;;;;5.78;4.93;;;20.00;99.90;;;;;;5087457;28;20028;-70
2022/07/30 05:17:42;;;;;;;5.90;5.30;;;20.00;99.90;;;;;;5086823;28;20111;-70
2022/07/30 05:20:08;;;;;;;5.50;5.00;;;20.00;99.90;;;;;;5086773;28;20028;-69
2022/07/30 05:22:34;;;;;;;6.22;4.97;;;20.00;99.90;;;;;;5085184;27;20032;-70
2022/07/30 05:24:59;;;;;;;9.52;4.78;;;20.00;99.90;;;;;;5081752;27;20050;-70
2022/07/30 05:27:25;;;;;;;4.45;4.13;;;20.00;99.90;;;;;;5085959;28;20058;-70
2022/07/30 05:29:51;;;;;;;4.97;4.57;;;20.00;99.90;;;;;;5087315;28;20059;-70
2022/07/30 05:32:16;;;;;;;4.70;4.30;;;20.00;99.90;;;;;;5085240;28;20032;-70
2022/07/30 05:34:42;;;;;;;6.88;4.68;;;20.10;99.90;;;;;;5078349;28;20036;-69
2022/07/30 05:37:08;;;;;;;5.53;4.07;;;20.10;99.90;;;;;;5075660;28;20032;-70
2022/07/30 05:39:33;;;;;;;5.30;4.78;;;20.10;99.90;;;;;;5069264;28;20078;-69
2022/07/30 05:41:59;;;;;;;5.60;5.10;;;20.00;99.90;;;;;;5072686;28;20456;-70
2022/07/30 05:45:08;;;;;;;5.03;4.57;;;19.80;99.90;;;;;;5086712;27;20497;-71
2022/07/30 05:47:34;;;;;;;5.68;4.40;;;19.90;99.90;;;;;;5108993;27;20031;-71
2022/07/30 05:49:59;;;;;;;6.35;4.60;;;20.00;99.90;;;;;;5109773;27;20046;-71
2022/07/30 05:52:25;;;;;;;7.95;4.55;;;20.00;99.90;;;;;;5102813;27;20028;-71
2022/07/30 05:54:50;;;;;;;5.13;4.50;;;20.10;99.90;;;;;;5107434;27;20051;-71
2022/07/30 05:57:16;;;;;;;5.25;4.75;;;20.10;99.90;;;;;;5109801;27;20027;-71
2022/07/30 05:59:42;;;;;;;5.80;4.60;;;20.10;99.90;;;;;;5102580;27;20035;-72
2022/07/30 06:02:08;;;;;;;5.00;4.55;;;20.10;99.90;;;;;;5113799;27;20031;-71
2022/07/30 06:04:34;;;;;;;9.30;5.10;;;20.20;99.90;;;;;;5109491;27;20035;-69
2022/07/30 06:06:59;;;;;;;4.88;4.43;;;20.20;99.90;;;;;;5111000;27;20031;-71
2022/07/30 06:09:25;;;;;;;5.18;4.75;;;20.30;99.90;;;;;;5108126;27;20023;-71
2022/07/30 06:11:51;;;;;;;4.80;4.25;;;20.40;99.90;;;;;;5108507;27;20044;-71
2022/07/30 06:14:17;;;;;;;5.25;4.75;;;20.40;99.90;;;;;;5111669;27;20023;-71
2022/07/30 06:16:42;;;;;;;5.15;4.75;;;20.40;99.90;;;;;;5110818;27;20083;-73
2022/07/30 06:19:08;;;;;;;5.10;4.07;;;20.30;99.90;;;;;;5112983;27;20043;-71
2022/07/30 06:21:33;;;;;;;6.00;4.93;;;20.30;99.90;;;;;;5114915;27;20034;-71
2022/07/30 06:23:59;;;;;;;6.00;4.97;;;20.20;99.90;;;;;;5111388;27;20063;-71
2022/07/30 06:26:25;;;;;;;6.78;4.63;;;20.20;99.90;;;;;;5111202;27;20047;-71
2022/07/30 06:28:50;;;;;;;4.38;3.97;;;20.20;99.90;;;;;;5111364;27;21211;-71
2022/07/30 06:31:16;;;;;;;5.55;4.10;;;20.20;99.90;;;;;;5110702;27;20027;-71
2022/07/30 06:33:42;;;;;;;4.43;3.95;;;20.20;99.90;;;;;;5114309;27;20062;-71
2022/07/30 06:36:07;;;;;;;5.45;4.13;;;20.20;99.90;;;;;;5114510;27;20028;-71
2022/07/30 06:38:33;;;;;;;4.13;3.60;;;20.10;99.90;;;;;;5107611;27;20027;-71
2022/07/30 06:40:59;;;;;;;4.68;4.28;;;20.00;99.90;;;;;;5109384;27;20368;-71
2022/07/30 06:43:25;;;;;;;4.18;3.75;;;20.00;99.90;;;;;;5111267;27;20047;-73
2022/07/30 06:45:50;;;;;;;5.25;4.18;;;20.10;99.90;;;;;;5110266;27;20031;-71
2022/07/30 06:48:16;;;;;;;4.20;3.67;;;20.20;99.90;;;;;;5110476;27;20055;-72
2022/07/30 06:50:42;;;;;;;4.20;3.83;;;20.30;99.90;;;;;;5107734;27;20032;-71
2022/07/30 06:53:07;;;;;;;4.50;3.88;;;20.30;99.90;;;;;;5106239;27;20027;-70
2022/07/30 06:55:33;;;;;;;4.47;4.07;;;20.30;99.90;;;;;;5099817;27;20153;-72
2022/07/30 06:57:59;;;;;;;5.18;3.90;;;20.40;99.90;;;;;;5093009;27;21213;-72
2022/07/30 07:00:24;;;;;;;8.85;4.28;;;20.50;99.90;;;;;;5092509;27;20031;-72
2022/07/30 07:02:50;;;;;;;4.68;4.05;;;20.60;99.90;;;;;;5093612;27;20496;-71
2022/07/30 07:05:16;;;;;;;4.97;3.92;;;20.60;99.90;;;;;;5090320;28;20043;-72
2022/07/30 07:07:42;;;;;;;4.95;4.40;;;20.70;99.90;;;;;;5093126;27;20030;-71
2022/07/30 07:10:09;;;;;;;4.90;4.40;;;20.70;99.90;;;;;;5091072;27;20150;-72
2022/07/30 07:12:35;;;;;;;4.70;4.10;;;20.70;99.90;;;;;;5093353;27;20031;-70
2022/07/30 07:15:00;;;;;;;4.53;4.13;;;20.80;99.90;;;;;;5105637;27;20031;-70
2022/07/30 07:17:27;;;;;;;4.78;4.35;;;20.80;99.90;;;;;;5085831;27;20031;-70
2022/07/30 07:19:52;;;;;;;5.13;4.63;;;20.80;99.90;;;;;;5092024;27;20716;-70
2022/07/30 07:22:18;;;;;;;4.97;4.57;;;20.90;99.90;;;;;;5086768;27;20015;-68
2022/07/30 07:24:44;;;;;;;5.50;5.00;;;20.90;99.90;;;;;;5086350;27;20057;-70
2022/07/30 07:27:09;;;;;;;6.43;4.93;;;20.90;99.90;;;;;;5088292;27;20203;-73
2022/07/30 07:29:35;;;;;;;5.40;5.00;;;20.90;99.90;;;;;;5082479;27;20467;-71
2022/07/30 07:32:01;;;;;;;5.35;4.85;;;21.00;99.90;;;;;;5083924;28;20024;-70
2022/07/30 07:34:26;;;;;;;4.38;4.00;;;21.10;99.90;;;;;;5085756;27;20027;-71
2022/07/30 07:36:52;;;;;;;4.68;4.18;;;21.20;99.90;;;;;;5093536;28;20032;-70
2022/07/30 07:39:18;;;;;;;4.78;3.88;;;21.40;99.90;;;;;;5086090;27;20024;-70
2022/07/30 07:41:44;;;;;;;4.30;3.88;;;21.60;99.90;;;;;;5081608;27;20277;-72
2022/07/30 07:44:09;;;;;;;4.90;4.40;;;21.70;99.90;;;;;;5074118;28;20105;-73
2022/07/30 07:46:35;;;;;;;5.25;4.05;;;21.80;99.90;;;;;;5088851;28;20039;-73
2022/07/30 07:49:01;;;;;;;4.97;4.07;;;21.90;99.90;;;;;;5087620;27;20055;-73
2022/07/30 07:51:26;;;;;;;4.53;4.13;;;22.00;99.90;;;;;;5083352;28;20050;-72
2022/07/30 07:53:52;;;;;;;5.10;4.43;;;22.20;99.90;;;;;;5084168;27;20077;-71
2022/07/30 07:56:19;;;;;;;5.00;4.53;;;22.20;99.90;;;;;;5079407;28;20111;-71
2022/07/30 07:58:46;;;;;;;4.82;4.15;;;22.10;99.90;;;;;;5083535;28;20114;-71
2022/07/30 08:01:11;;;;;;;4.60;4.15;;;22.10;99.90;;;;;;5076553;28;20088;-71
2022/07/30 08:03:37;;;;;;;5.00;4.50;;;22.10;99.90;;;;;;5091021;27;20051;-71
2022/07/30 08:06:03;;;;;;;5.05;4.65;;;22.10;99.90;;;;;;5085992;27;20035;-70
2022/07/30 08:08:28;;;;;;;7.28;4.25;;;22.10;99.90;;;;;;5082541;27;20038;-72
2022/07/30 08:10:54;;;;;;;4.88;4.47;;;22.10;99.90;;;;;;5082876;27;20448;-70
2022/07/30 08:13:20;;;;;;;4.90;4.47;;;22.00;99.90;;;;;;5084620;28;20035;-71
2022/07/30 08:15:45;;;;;;;5.15;4.63;;;21.90;99.90;;;;;;5085912;28;20035;-70
2022/07/30 08:18:11;;;;;;;4.43;4.03;;;21.80;99.90;;;;;;5086753;27;20030;-71
2022/07/30 08:20:38;;;;;;;4.72;4.28;;;21.80;99.90;;;;;;5086421;28;20031;-71
2022/07/30 08:23:04;;;;;;;4.43;4.03;;;21.80;99.90;;;;;;5082279;27;20565;-72
2022/07/30 08:25:30;;;;;;;5.25;4.78;;;21.70;99.90;;;;;;5089179;27;20488;-71
2022/07/30 08:27:57;;;;;;;5.22;4.72;;;21.80;99.90;;;;;;5089039;27;21042;-72
2022/07/30 08:30:23;;;;;;;5.00;4.57;;;21.80;99.90;;;;;;5089158;27;20027;-71
2022/07/30 08:32:48;;;;;;;5.45;4.60;;;21.60;99.90;;;;;;5082741;28;20043;-71
2022/07/30 08:35:14;;;;;;;5.00;4.60;;;21.50;99.90;;;;;;5088226;28;20039;-71
2022/07/30 08:37:41;;;;;;;5.22;4.47;;;21.60;99.90;;;;;;5089564;28;20024;-71
2022/07/30 08:40:07;;;;;;;4.82;4.43;;;21.60;99.90;;;;;;5087789;28;20062;-71
2022/07/30 08:42:34;;;;;;;5.15;4.75;;;21.70;99.90;;;;;;5089236;27;20637;-71
2022/07/30 08:44:59;;;;;;;5.10;4.60;;;21.70;99.90;;;;;;5085275;28;20066;-71
2022/07/30 08:47:32;;;;;;;5.07;4.65;;;21.70;99.90;;;;;;5092682;27;20869;-71
2022/07/30 08:50:05;;;;;;;5.47;4.95;;;21.70;99.90;;;;;;5094289;28;20035;-71
2022/07/30 08:52:32;;;;;;;5.65;5.15;;;21.70;99.90;;;;;;5084662;28;20111;-72
2022/07/30 08:54:59;;;;;;;5.88;5.38;;;21.70;99.90;;;;;;5087516;28;20039;-71
2022/07/30 08:57:29;;;;;;;6.00;5.05;;;21.70;99.90;;;;;;5089381;28;20635;-71
2022/07/30 08:59:59;;;;;;;5.53;4.53;;;21.70;99.90;;;;;;5082558;28;20034;-71
2022/07/30 09:02:25;;;;;;;5.40;4.90;;;21.70;99.90;;;;;;5084141;27;20561;-72
2022/07/30 09:04:52;;;;;;;6.47;5.88;;;21.70;99.90;;;;;;5088222;28;20042;-72
2022/07/30 09:07:18;;;;;;;5.63;4.95;;;21.70;99.90;;;;;;5074072;27;20028;-72
2022/07/30 09:09:43;;;;;;;6.03;5.03;;;21.70;99.90;;;;;;5085852;27;20123;-71
2022/07/30 09:12:37;;;;;;;5.57;5.10;;;21.80;99.90;;;;;;5088123;28;20099;-70
2022/07/30 09:15:22;;;;;;;5.32;4.93;;;21.80;99.90;;;;;;5083446;27;21195;-70
2022/07/30 09:17:55;;;;;;;4.93;4.53;;;21.70;99.90;;;;;;5090981;28;20042;-70
2022/07/30 09:20:24;;;;;;;5.95;5.38;;;21.70;99.90;;;;;;5089120;27;20496;-70
2022/07/30 09:22:52;;;;;;;5.57;4.95;;;21.90;99.90;;;;;;5088888;28;20035;-70
2022/07/30 09:25:38;;;;;;;5.05;4.65;;;22.00;99.90;;;;;;5082728;28;20110;-70
2022/07/30 09:28:06;;;;;;;5.72;5.30;;;21.80;99.90;;;;;;5088249;28;20421;-70
2022/07/30 09:30:49;;;;;;;6.05;5.55;;;21.90;99.90;;;;;;5090328;27;20135;-70
2022/07/30 09:33:36;;;;;;;5.93;5.32;;;21.90;99.90;;;;;;5090117;28;20066;-70
2022/07/30 09:36:05;;;;;;;6.57;5.93;;;21.90;99.90;;;;;;5083611;28;20054;-72
2022/07/30 09:38:52;;;;;;;6.50;5.65;;;21.90;99.90;;;;;;5086591;28;20024;-70
2022/07/30 09:41:30;;;;;;;6.13;5.63;;;22.00;99.90;;;;;;5086618;28;20035;-70
2022/07/30 09:43:56;;;;;;;5.75;5.25;;;21.90;99.90;;;;;;5092696;28;20044;-69
2022/07/30 09:46:39;;;;;;;7.32;5.80;;;21.90;99.90;;;;;;5103464;27;20909;-70
2022/07/30 09:49:19;;;;;;;6.13;5.60;;;22.00;99.90;;;;;;5089601;28;20036;-69
2022/07/30 09:51:44;;;;;;;6.05;5.50;;;22.10;99.90;;;;;;5093953;28;20024;-70
2022/07/30 09:54:10;;;;;;;6.25;5.75;;;22.10;99.90;;;;;;5086540;28;20482;-69
2022/07/30 09:56:36;;;;;;;6.22;5.72;;;22.10;99.90;;;;;;5092378;28;20028;-70
2022/07/30 09:59:01;;;;;;;5.95;5.45;;;22.10;99.90;;;;;;5089859;28;20020;-69
2022/07/30 10:01:27;;;;;;;6.43;5.82;;;22.20;99.90;;;;;;5092356;28;20036;-69
2022/07/30 10:03:53;;;;;;;6.00;5.45;;;22.10;99.90;;;;;;5095435;28;20039;-68
2022/07/30 10:06:32;;;;;;;5.28;4.88;;;22.10;99.90;;;;;;5091337;28;20350;-69
2022/07/30 10:08:58;;;;;;;7.45;5.20;;;22.00;99.90;;;;;;5084625;28;20028;-71
2022/07/30 10:11:25;;;;;;;6.03;5.50;;;21.90;99.90;;;;;;5091978;28;20085;-71
2022/07/30 10:13:54;;;;;;;9.30;5.60;;;21.90;99.90;;;;;;5082487;28;20054;-71
2022/07/30 10:16:20;;;;;;;6.22;5.63;;;22.00;99.90;;;;;;5084547;28;20153;-71
2022/07/30 10:18:46;;;;;;;6.50;5.90;;;22.00;99.90;;;;;;5092150;28;20403;-67
2022/07/30 10:21:12;;;;;;;11.45;6.53;;;22.00;99.90;;;;;;5087945;28;20036;-70
2022/07/30 10:23:39;;;;;;;7.10;6.40;;;21.90;99.90;;;;;;5090757;28;20048;-70
2022/07/30 10:26:06;;;;;;;7.00;6.32;;;21.90;99.90;;;;;;5083312;28;20086;-70
2022/07/30 10:28:32;;;;;;;7.68;5.88;;;21.80;99.90;;;;;;5088965;28;20035;-70
2022/07/30 10:30:59;;;;;;;6.28;5.78;;;21.70;99.90;;;;;;5087554;27;20051;-70
2022/07/30 10:33:27;;;;;;;9.68;7.60;;;21.70;99.90;;;;;;5089907;27;20034;-71
2022/07/30 10:35:54;;;;;;;7.05;6.35;;;21.70;99.90;;;;;;5095449;27;20576;-71
2022/07/30 10:38:23;;;;;;;9.40;7.82;;;21.60;99.90;;;;;;5095815;27;20023;-70
2022/07/30 10:41:16;;;;;;;9.00;7.40;;;21.50;99.90;;;;;;5092172;28;20595;-69
2022/07/30 10:43:54;;;;;;;7.40;6.70;;;21.50;99.90;;;;;;5094882;27;20044;-70
2022/07/30 10:46:38;;;;;;;7.93;7.07;;;21.50;99.90;;;;;;5097760;27;20032;-70
2022/07/30 10:49:13;;;;;;;11.05;6.93;;;21.50;99.90;;;;;;5097412;27;20052;-70
2022/07/30 10:51:47;;;;;;;7.32;6.63;;;21.50;99.90;;;;;;5093328;28;20023;-70
2022/07/30 10:54:32;;;;;;;8.13;7.32;;;21.60;99.90;;;;;;5097609;27;20034;-70
2022/07/30 10:57:11;;;;;;;7.50;6.28;;;21.50;99.90;;;;;;5093380;28;20693;-70
2022/07/30 10:59:54;;;;;;;7.32;6.05;;;21.40;99.90;;;;;;5087701;28;20045;-69
2022/07/30 11:02:21;;;;;;;6.38;5.78;;;21.40;99.90;;;;;;5092710;27;20036;-69
2022/07/30 11:04:47;;;;;;;7.38;6.65;;;21.30;99.90;;;;;;5096182;27;20912;-70
2022/07/30 11:07:28;;;;;;;5.85;5.32;;;21.20;99.90;;;;;;5092837;28;20034;-70
2022/07/30 11:09:59;;;;;;;5.55;4.97;;;21.20;99.90;;;;;;5093918;27;20038;-69
2022/07/30 11:12:44;;;;;;;4.70;4.30;;;21.10;99.90;;;;;;5091356;28;21108;-70
2022/07/30 11:15:11;;;;;;;6.80;4.72;;;21.20;99.90;;;;;;5093113;28;20143;-70
2022/07/30 11:17:57;;;;;;;4.20;3.45;;;21.10;99.90;;;;;;5094237;27;20050;-71
2022/07/30 11:20:23;;;;;;;3.95;3.65;;;21.10;99.90;;;;;;5087059;27;20032;-71
2022/07/30 11:22:49;;;;;;;3.45;3.25;;;21.10;99.90;;;;;;5098926;27;20573;-71
2022/07/30 11:25:20;;;;;;;5.03;3.95;;;21.10;99.90;;;;;;5091081;28;20399;-71
2022/07/30 11:27:49;;;;;;;4.50;3.70;;;21.00;99.90;;;;;;5093390;28;20036;-75
2022/07/30 11:30:14;;;;;;;4.78;3.95;;;20.90;99.90;;;;;;5091387;27;20089;-75
2022/07/30 11:32:46;;;;;;;5.00;4.50;;;21.00;99.90;;;;;;5091813;27;20110;-75
2022/07/30 11:35:19;;;;;;;4.43;4.00;;;21.00;99.90;;;;;;5083679;27;20023;-75
2022/07/30 11:37:57;;;;;;;5.50;4.03;;;21.00;99.90;;;;;;5094480;27;20107;-75
2022/07/30 11:40:25;;;;;;;5.60;4.05;;;21.00;99.90;;;;;;5088013;27;20031;-75
2022/07/30 11:43:11;;;;;;;5.00;4.55;;;21.00;99.90;;;;;;5097365;28;20641;-75
2022/07/30 11:45:37;;;;;;;5.15;4.68;;;21.00;99.90;;;;;;5090949;27;20047;-75
2022/07/30 11:48:09;;;;;;;4.10;3.80;;;21.10;99.90;;;;;;5094160;28;20077;-76
2022/07/30 11:50:35;;;;;;;3.97;3.58;;;21.10;99.90;;;;;;5089141;27;20634;-75
2022/07/30 11:53:04;;;;;;;3.58;3.28;;;21.10;99.90;;;;;;5087301;27;20432;-75
2022/07/30 11:55:39;;;;;;;3.30;3.00;;;21.10;99.90;;;;;;5090177;27;20024;-75
2022/07/30 11:58:07;;;;;;;4.18;2.58;;;21.20;99.90;;;;;;5095410;27;20024;-74
2022/07/30 12:00:41;;;;;;;2.15;2.05;;;21.20;99.90;;;;;;5092138;27;20495;-73
2022/07/30 12:03:11;;;;;;;1.35;1.20;;;21.20;99.90;;;;;;5093981;28;20445;-73
2022/07/30 12:05:38;;;;;;;1.30;1.20;;;21.20;99.90;;;;;;5093630;28;20035;-74
2022/07/30 12:08:04;;;;;;;1.08;1.00;;;21.30;99.90;;;;;;5088450;28;20111;-73
2022/07/30 12:10:30;;;;;;;2.35;0.85;;;21.30;99.90;;;;;;5091269;28;20049;-73
2022/07/30 12:13:10;;;;;;;1.30;0.80;;;21.40;99.90;;;;;;5089388;27;20024;-73
2022/07/30 12:15:39;;;;;;;0.82;0.82;;;21.50;99.90;;;;;;5090321;27;20081;-74
2022/07/30 12:18:06;;;;;;;0.80;0.80;;;21.40;99.90;;;;;;5096693;28;20048;-74
2022/07/30 12:20:32;;;;;;;0.60;0.60;;;21.50;99.90;;;;;;5096032;27;20106;-74
2022/07/30 12:22:58;;;;;;;0.75;0.73;;;21.60;99.90;;;;;;5095134;28;20369;-75
2022/07/30 12:25:24;;;;;;;0.60;0.60;;;21.70;99.90;;;;;;5092551;27;20035;-73
2022/07/30 12:27:50;;;;;;;0.95;0.63;;;21.90;99.90;;;;;;5096383;28;20031;-75
2022/07/30 12:30:17;;;;;;;0.63;0.40;;;22.00;99.90;;;;;;5097360;28;20043;-76
2022/07/30 12:32:44;;;;;;;1.23;0.50;;;22.10;99.90;;;;;;5089849;28;20062;-73
2022/07/30 12:35:11;;;;;;;0.63;0.55;;;22.10;99.90;;;;;;5095651;28;20023;-73
2022/07/30 12:37:37;;;;;;;0.85;0.80;;;22.10;99.90;;;;;;5094259;28;21187;-74
2022/07/30 12:40:07;;;;;;;0.75;0.73;;;22.30;99.90;;;;;;5089697;28;20115;-73
2022/07/30 12:42:33;;;;;;;0.88;0.88;;;22.30;99.90;;;;;;5092292;27;20105;-74
2022/07/30 12:44:59;;;;;;;5.55;1.05;;;22.30;99.90;;;;;;5094844;27;20044;-74
2022/07/30 12:47:27;;;;;;;14.30;1.90;;;22.30;99.90;;;;;;5094222;27;20034;-74
2022/07/30 12:49:57;;;;;;;1.05;0.95;;;22.40;99.90;;;;;;5094269;27;20139;-73
2022/07/30 12:52:30;;;;;;;2.17;0.95;;;22.40;99.90;;;;;;5093138;28;20050;-72
2022/07/30 12:55:07;;;;;;;0.80;0.68;;;22.40;99.90;;;;;;5096271;27;20024;-73
2022/07/30 12:57:51;;;;;;;1.20;0.80;;;22.30;99.90;;;;;;5094368;27;20110;-74